createdAt,value
2019-06-26T00:01:44.106Z,30.23
2019-06-26T00:04:16.148Z,25.10
2019-06-26T00:06:47.890Z,25.97
2019-06-26T00:09:20.959Z,23.03
2019-06-26T00:11:53.193Z,27.73
2019-06-26T00:14:25.090Z,24.20
2019-06-26T00:16:56.760Z,30.20
2019-06-26T00:19:28.583Z,27.50
2019-06-26T00:22:01.496Z,25.10
2019-06-26T00:24:33.247Z,26.13
2019-06-26T00:27:05.074Z,21.77
2019-06-26T00:29:36.828Z,25.37
2019-06-26T00:32:08.566Z,24.93
2019-06-26T00:34:40.307Z,25.00
2019-06-26T00:37:12.049Z,23.17
2019-06-26T00:39:43.790Z,21.10
2019-06-26T00:42:15.638Z,29.97
2019-06-26T00:44:47.370Z,23.47
2019-06-26T00:47:19.125Z,34.90
2019-06-26T00:49:52.126Z,27.63
2019-06-26T00:52:23.870Z,32.73
2019-06-26T00:54:55.602Z,34.23
2019-06-26T00:57:27.342Z,30.60
2019-06-26T01:00:00.740Z,30.43
2019-06-26T01:02:34.247Z,29.37
2019-06-26T01:05:12.598Z,34.03
2019-06-26T01:07:44.247Z,24.70
2019-06-26T01:10:16.787Z,29.30
2019-06-26T01:12:48.443Z,30.23
2019-06-26T01:15:20.449Z,28.10
2019-06-26T01:17:53.578Z,30.33
2019-06-26T01:20:25.580Z,27.83
2019-06-26T01:22:57.502Z,28.77
2019-06-26T01:25:29.343Z,37.27
2019-06-26T01:28:02.333Z,28.37
2019-06-26T01:30:34.064Z,33.53
2019-06-26T01:33:05.883Z,29.13
2019-06-26T01:35:37.917Z,34.47
2019-06-26T01:38:10.433Z,34.57
2019-06-26T01:40:42.269Z,28.97
2019-06-26T01:43:14.113Z,29.73
2019-06-26T01:45:45.849Z,32.50
2019-06-26T01:48:17.597Z,29.50
2019-06-26T01:50:49.346Z,30.97
2019-06-26T01:53:21.082Z,26.97
2019-06-26T01:55:53.799Z,28.57
2019-06-26T01:58:25.543Z,30.93
2019-06-26T02:00:57.290Z,29.83
2019-06-26T02:03:29.032Z,29.67
2019-06-26T02:06:00.777Z,31.03
2019-06-26T02:08:33.470Z,29.83
2019-06-26T02:11:05.861Z,30.77
2019-06-26T02:13:37.506Z,27.17
2019-06-26T02:16:09.350Z,32.63
2019-06-26T02:18:45.765Z,31.23
2019-06-26T02:21:17.497Z,32.70
2019-06-26T02:23:49.242Z,30.30
2019-06-26T02:26:21.552Z,29.63
2019-06-26T02:28:53.399Z,28.20
2019-06-26T02:31:25.144Z,26.67
2019-06-26T02:33:56.893Z,35.03
2019-06-26T02:36:28.638Z,30.67
2019-06-26T02:39:00.506Z,27.00
2019-06-26T02:41:32.808Z,28.03
2019-06-26T02:44:04.928Z,23.50
2019-06-26T02:46:36.918Z,31.80
2019-06-26T02:49:08.665Z,26.17
2019-06-26T02:51:40.514Z,28.13
2019-06-26T02:54:12.260Z,30.70
2019-06-26T02:56:43.958Z,30.23
2019-06-26T02:59:15.716Z,33.73
2019-06-26T03:01:47.476Z,42.53
2019-06-26T03:04:19.293Z,41.77
2019-06-26T03:06:51.046Z,40.73
2019-06-26T03:09:23.509Z,43.27
2019-06-26T03:11:55.163Z,39.70
2019-06-26T03:14:26.909Z,45.37
2019-06-26T03:16:58.661Z,33.23
2019-06-26T03:19:30.413Z,35.87
2019-06-26T03:22:02.165Z,37.03
2019-06-26T03:24:33.909Z,34.73
2019-06-26T03:27:08.891Z,27.90
2019-06-26T03:29:39.258Z,30.40
2019-06-26T03:32:11.104Z,28.73
2019-06-26T03:34:42.835Z,25.90
2019-06-26T03:37:14.589Z,28.67
2019-06-26T03:39:47.598Z,35.53
2019-06-26T03:42:19.346Z,40.13
2019-06-26T03:44:51.087Z,33.20
2019-06-26T03:47:22.820Z,31.77
2019-06-26T03:49:54.571Z,29.03
2019-06-26T03:52:26.320Z,31.87
2019-06-26T03:54:58.156Z,27.93
2019-06-26T03:57:29.914Z,34.13
2019-06-26T04:00:01.990Z,31.13
2019-06-26T04:02:37.801Z,31.77
2019-06-26T04:05:11.263Z,29.63
2019-06-26T04:07:43.006Z,30.43
2019-06-26T04:10:14.998Z,23.80
2019-06-26T04:12:46.836Z,25.33
2019-06-26T04:15:18.923Z,24.77
2019-06-26T04:17:50.702Z,23.97
2019-06-26T04:20:22.573Z,20.57
2019-06-26T04:22:55.551Z,18.93
2019-06-26T04:25:27.205Z,33.23
2019-06-26T04:28:00.277Z,20.10
2019-06-26T04:30:31.922Z,18.37
2019-06-26T04:33:03.836Z,25.67
2019-06-26T04:35:35.475Z,21.57
2019-06-26T04:38:07.218Z,22.70
2019-06-26T04:40:38.962Z,19.23
2019-06-26T04:43:10.705Z,15.95
2019-06-26T04:45:57.152Z,18.17
2019-06-26T04:48:16.081Z,17.95
2019-06-26T04:50:47.820Z,16.37
2019-06-26T04:53:19.668Z,22.02
2019-06-26T04:55:51.404Z,17.60
2019-06-26T04:58:23.141Z,18.40
2019-06-26T05:00:57.323Z,17.73
2019-06-26T05:03:29.071Z,20.15
2019-06-26T05:06:00.931Z,21.12
2019-06-26T05:08:32.685Z,18.60
2019-06-26T05:11:04.707Z,14.78
2019-06-26T05:13:36.576Z,17.80
2019-06-26T05:16:14.897Z,16.70
2019-06-26T05:18:41.570Z,17.40
2019-06-26T05:21:13.330Z,12.82
2019-06-26T05:23:45.094Z,13.88
2019-06-26T05:26:16.736Z,17.62
2019-06-26T05:28:48.604Z,13.05
2019-06-26T05:31:20.942Z,16.40
2019-06-26T09:58:18.939Z,9.60
2019-06-26T10:00:50.850Z,14.43
2019-06-26T10:03:22.590Z,9.87
2019-06-26T10:05:54.323Z,11.30
2019-06-26T10:08:26.405Z,11.05
2019-06-26T10:11:05.378Z,11.48
2019-06-26T10:13:37.090Z,10.20
2019-06-26T10:16:09.033Z,14.83
2019-06-26T10:18:40.974Z,11.60
2019-06-26T10:21:12.815Z,8.63
2019-06-26T10:23:44.570Z,12.63
2019-06-26T10:26:16.324Z,8.58
2019-06-26T10:28:48.071Z,13.22
2019-06-26T10:31:19.838Z,11.67
2019-06-26T10:33:51.579Z,10.18
2019-06-26T10:36:24.693Z,8.05
2019-06-26T10:38:58.182Z,12.78
2019-06-26T10:41:29.975Z,11.65
2019-06-26T10:44:01.799Z,10.30
2019-06-26T10:46:35.278Z,10.68
2019-06-26T10:49:07.255Z,11.93
2019-06-26T10:51:39.705Z,10.95
2019-06-26T10:54:11.618Z,20.95
2019-06-26T10:56:54.065Z,10.03
2019-06-26T10:59:36.976Z,9.08
2019-06-26T11:02:12.430Z,10.32
2019-06-26T11:04:50.848Z,10.53
2019-06-26T11:07:22.641Z,35.48
2019-06-26T11:09:54.463Z,10.35
2019-06-26T11:12:26.187Z,13.43
2019-06-26T11:14:57.943Z,10.03
2019-06-26T11:17:29.893Z,11.38
2019-06-26T11:20:01.549Z,14.33
2019-06-26T11:22:33.355Z,10.38
2019-06-26T11:25:07.110Z,9.15
2019-06-26T11:27:38.816Z,10.72
2019-06-26T11:30:11.985Z,7.87
2019-06-26T11:32:43.691Z,14.20
2019-06-26T11:35:15.998Z,11.55
2019-06-26T11:37:47.972Z,11.05
2019-06-26T11:40:20.314Z,16.93
2019-06-26T11:42:52.097Z,8.78
2019-06-26T11:45:24.782Z,11.93
2019-06-26T11:47:57.748Z,7.50
2019-06-26T11:50:30.393Z,10.18
2019-06-26T11:53:03.056Z,7.05
2019-06-26T11:55:34.982Z,7.22
2019-06-26T11:58:06.827Z,9.53
2019-06-26T12:00:41.728Z,9.50
2019-06-26T12:03:14.560Z,8.53
2019-06-26T12:05:48.137Z,8.85
2019-06-26T12:08:22.579Z,11.57
2019-06-26T12:10:54.333Z,10.85
2019-06-26T12:13:26.157Z,10.28
2019-06-26T12:15:58.163Z,9.73
2019-06-26T12:18:29.911Z,7.20
2019-06-26T12:21:01.898Z,7.35
2019-06-26T12:23:33.756Z,7.50
2019-06-26T12:26:06.931Z,9.10
2019-06-26T12:28:46.921Z,7.65
2019-06-26T12:31:23.164Z,9.10
2019-06-26T12:34:02.890Z,9.50
2019-06-26T12:36:39.001Z,8.05
2019-06-26T12:39:13.414Z,11.45
2019-06-26T12:41:52.111Z,7.40
2019-06-26T12:44:31.907Z,9.48
2019-06-26T12:47:09.123Z,10.25
2019-06-26T12:49:42.956Z,7.72
2019-06-26T12:52:22.235Z,13.58
2019-06-26T12:55:00.194Z,8.53
2019-06-26T12:57:32.648Z,8.63
2019-06-26T13:00:11.781Z,9.65
2019-06-26T13:02:57.708Z,11.35
2019-06-26T13:05:32.899Z,10.15
2019-06-26T13:08:09.941Z,9.80
2019-06-26T13:10:49.435Z,8.63
2019-06-26T13:13:22.750Z,8.80
2019-06-26T13:16:02.442Z,9.70
2019-06-26T13:18:35.000Z,7.28
2019-06-26T13:21:06.717Z,7.40
2019-06-26T13:23:42.200Z,11.68
2019-06-26T13:26:22.715Z,7.72
2019-06-26T13:28:57.047Z,9.68
2019-06-26T13:31:30.890Z,7.70
2019-06-26T13:34:07.518Z,7.53
2019-06-26T13:36:43.647Z,7.65
2019-06-26T13:39:19.412Z,6.60
2019-06-26T13:41:53.523Z,9.23
2019-06-26T13:44:27.784Z,6.25
2019-06-26T13:47:16.831Z,11.38
2019-06-26T13:49:50.475Z,8.53
2019-06-26T13:52:22.548Z,10.72
2019-06-26T13:54:57.225Z,13.10
2019-06-26T13:57:31.778Z,6.42
2019-06-26T14:00:09.985Z,7.67
2019-06-26T14:02:50.955Z,11.40
2019-06-26T14:05:22.819Z,9.38
2019-06-26T14:07:55.561Z,6.55
2019-06-26T14:10:27.519Z,11.50
2019-06-26T14:13:00.550Z,6.65
2019-06-26T14:15:33.386Z,8.78
2019-06-26T14:18:05.557Z,10.98
2019-06-26T14:20:37.571Z,7.70
2019-06-26T14:23:10.003Z,10.58
2019-06-26T14:25:41.764Z,11.12
2019-06-26T14:28:13.492Z,12.35
2019-06-26T14:30:45.233Z,10.48
2019-06-26T14:33:17.065Z,7.50
2019-06-26T14:35:49.089Z,8.80
2019-06-26T14:38:20.822Z,8.35
2019-06-26T14:40:52.651Z,11.88
2019-06-26T14:43:27.942Z,10.58
2019-06-26T14:46:03.208Z,10.50
2019-06-26T14:48:36.415Z,10.90
2019-06-26T14:51:09.937Z,8.33
2019-06-26T14:53:41.997Z,12.37
2019-06-26T14:56:13.930Z,13.15
2019-06-26T14:58:47.491Z,17.48
2019-06-26T15:01:21.279Z,18.35
2019-06-26T15:03:56.657Z,8.13
2019-06-26T15:06:32.335Z,32.23
2019-06-26T15:09:10.083Z,12.78
2019-06-26T15:11:47.714Z,14.75
2019-06-26T15:14:21.268Z,8.90
2019-06-26T15:16:53.217Z,11.95
2019-06-26T15:19:27.450Z,9.00
2019-06-26T15:22:04.892Z,12.63
2019-06-26T15:24:38.384Z,17.60
2019-06-26T15:27:10.767Z,9.05
2019-06-26T15:29:45.565Z,10.43
2019-06-26T15:32:17.218Z,15.23
2019-06-26T15:34:50.617Z,16.87
2019-06-26T15:37:22.255Z,11.48
2019-06-26T15:39:53.909Z,14.78
2019-06-26T15:42:29.455Z,17.97
2019-06-26T15:45:02.119Z,16.07
2019-06-26T15:47:34.009Z,13.08
2019-06-26T15:50:10.785Z,15.95
2019-06-26T15:52:44.195Z,17.15
2019-06-26T15:55:19.145Z,28.05
2019-06-26T15:57:51.124Z,11.75
2019-06-26T16:00:25.157Z,11.18
2019-06-26T16:02:57.137Z,12.80
2019-06-26T16:05:33.339Z,11.48
2019-06-26T16:08:08.079Z,12.18
2019-06-26T16:10:46.651Z,13.30
2019-06-26T16:13:19.943Z,15.88
2019-06-26T16:15:56.434Z,13.03
2019-06-26T16:18:33.654Z,9.03
2019-06-26T16:21:06.896Z,17.95
2019-06-26T16:23:38.519Z,11.23
2019-06-26T16:26:11.684Z,15.93
2019-06-26T16:28:45.209Z,13.72
2019-06-26T16:31:22.139Z,14.85
2019-06-26T16:33:54.576Z,10.63
2019-06-26T16:36:26.595Z,15.67
2019-06-26T16:38:58.362Z,11.43
2019-06-26T16:41:30.054Z,8.98
2019-06-26T16:44:01.908Z,14.73
2019-06-26T16:46:34.875Z,11.53
2019-06-26T16:49:06.517Z,12.17
2019-06-26T16:51:40.011Z,17.40
2019-06-26T16:54:14.611Z,34.17
2019-06-26T16:56:46.363Z,15.40
2019-06-26T16:59:19.591Z,17.60
2019-06-26T17:01:52.027Z,10.53
2019-06-26T17:04:31.657Z,20.37
2019-06-26T17:07:08.675Z,9.67
2019-06-26T17:09:44.221Z,17.10
2019-06-26T17:12:14.561Z,22.10
2019-06-26T17:14:46.184Z,16.17
2019-06-26T17:17:17.942Z,15.63
2019-06-26T17:19:49.803Z,18.67
2019-06-26T17:22:21.512Z,28.13
2019-06-26T17:24:53.277Z,16.70
2019-06-26T17:27:25.048Z,16.10
2019-06-26T17:29:58.303Z,19.07
2019-06-26T17:32:30.025Z,15.23
2019-06-26T17:35:02.092Z,12.10
2019-06-26T17:37:34.338Z,9.63
2019-06-26T17:40:08.282Z,18.37
2019-06-26T17:42:40.493Z,15.60
2019-06-26T17:45:15.311Z,12.07
2019-06-26T17:47:46.950Z,12.50
2019-06-26T17:50:19.673Z,20.97
2019-06-26T17:52:51.534Z,18.20
2019-06-26T17:55:23.327Z,16.43
2019-06-26T17:57:55.063Z,14.37
2019-06-26T18:00:31.510Z,17.93
2019-06-26T18:03:04.551Z,18.23
2019-06-26T18:05:36.409Z,21.70
2019-06-26T18:08:08.168Z,22.53
2019-06-26T18:10:39.959Z,18.10
2019-06-26T18:13:11.701Z,18.57
2019-06-26T18:15:44.554Z,22.07
2019-06-26T18:18:17.371Z,20.13
2019-06-26T18:20:49.115Z,14.07
2019-06-26T18:23:33.613Z,17.57
2019-06-26T18:26:11.557Z,16.10
2019-06-26T18:28:27.941Z,20.17
2019-06-26T18:30:59.862Z,27.27
2019-06-26T18:33:31.641Z,30.97
2019-06-26T18:36:03.398Z,27.77
2019-06-26T18:38:35.122Z,19.70
2019-06-26T18:41:10.991Z,18.77
2019-06-26T18:43:48.435Z,16.50
2019-06-26T18:46:20.190Z,15.97
2019-06-26T18:48:52.031Z,16.03
2019-06-26T18:51:24.054Z,15.13
2019-06-26T18:53:55.792Z,19.13
2019-06-26T18:56:27.538Z,17.73
2019-06-26T18:59:06.920Z,24.43
2019-06-26T19:01:49.773Z,17.23
2019-06-26T19:04:21.618Z,16.47
2019-06-26T19:06:53.359Z,21.77
2019-06-26T19:09:25.116Z,18.73
2019-06-26T19:11:56.867Z,25.90
2019-06-26T19:14:28.599Z,15.07
2019-06-26T19:17:00.441Z,25.70
2019-06-26T19:19:34.318Z,13.37
2019-06-26T19:22:06.424Z,23.30
2019-06-26T19:24:38.472Z,16.13
2019-06-26T19:27:11.711Z,17.77
2019-06-26T19:29:43.466Z,16.27
2019-06-26T19:32:15.240Z,21.50
2019-06-26T19:34:46.964Z,13.97
2019-06-26T19:37:20.544Z,18.43
2019-06-26T19:39:54.287Z,11.70
2019-06-26T19:42:27.278Z,16.30
2019-06-26T19:44:58.921Z,12.87
2019-06-26T19:47:31.701Z,16.23
2019-06-26T19:50:07.748Z,11.43
2019-06-26T19:52:39.595Z,16.20
2019-06-26T19:55:12.235Z,21.73
2019-06-26T19:57:44.891Z,19.47
2019-06-26T20:00:18.333Z,12.97
2019-06-26T20:02:52.652Z,10.10
2019-06-26T20:05:26.223Z,13.30
2019-06-26T20:08:02.579Z,10.60
2019-06-26T20:10:39.870Z,13.37
2019-06-26T20:13:08.050Z,14.30
2019-06-26T20:15:40.392Z,11.03
2019-06-26T20:18:14.208Z,18.37
2019-06-26T20:20:46.012Z,14.20
2019-06-26T20:23:19.904Z,16.43
2019-06-26T20:25:51.986Z,17.87
2019-06-26T20:28:25.568Z,16.03
2019-06-26T20:30:58.683Z,14.77
2019-06-26T20:33:31.055Z,14.60
2019-06-26T20:36:05.351Z,16.17
2019-06-26T20:38:39.173Z,22.20
2019-06-26T20:41:11.078Z,11.47
2019-06-26T20:43:44.431Z,9.43
2019-06-26T20:46:17.825Z,14.13
2019-06-26T20:48:49.853Z,10.97
2019-06-26T20:51:23.933Z,12.60
2019-06-26T20:53:57.661Z,10.17
2019-06-26T20:56:31.418Z,17.67
2019-06-26T20:59:03.381Z,12.00
2019-06-26T21:01:36.976Z,15.67
2019-06-26T21:04:10.455Z,10.33
2019-06-26T21:06:42.221Z,14.23
2019-06-26T21:09:15.235Z,16.57
2019-06-26T21:11:46.987Z,13.53
2019-06-26T21:14:19.990Z,18.47
2019-06-26T21:16:51.796Z,16.47
2019-06-26T21:19:23.489Z,19.80
2019-06-26T21:21:55.354Z,11.27
2019-06-26T21:24:27.376Z,10.77
2019-06-26T21:27:00.705Z,13.83
2019-06-26T21:29:32.886Z,13.77
2019-06-26T21:32:06.250Z,12.63
2019-06-26T21:34:38.133Z,10.20
2019-06-26T21:37:11.070Z,8.80
2019-06-26T21:39:42.883Z,9.17
2019-06-26T21:42:14.907Z,9.93
2019-06-26T21:44:46.654Z,10.77
2019-06-26T21:47:19.708Z,13.40
2019-06-26T21:49:51.659Z,8.13
2019-06-26T21:52:23.509Z,7.53
2019-06-26T21:54:55.440Z,9.80
2019-06-26T21:57:45.062Z,12.90
2019-06-26T22:00:38.532Z,8.00
2019-06-26T22:03:28.258Z,11.77
2019-06-26T22:06:04.648Z,12.27
2019-06-26T22:08:54.576Z,14.40
2019-06-26T22:11:26.587Z,9.83
2019-06-26T22:13:58.248Z,8.50
2019-06-26T22:16:30.287Z,8.27
2019-06-26T22:19:02.646Z,13.87
2019-06-26T22:21:35.727Z,8.40
2019-06-26T22:24:07.770Z,17.77
2019-06-26T22:26:39.530Z,14.50
2019-06-26T22:29:11.276Z,9.70
2019-06-26T22:31:43.016Z,9.37
2019-06-26T22:34:14.767Z,11.60
2019-06-26T22:36:51.677Z,9.87
2019-06-26T22:39:21.402Z,11.27
2019-06-26T22:41:53.086Z,7.23
2019-06-26T22:44:25.803Z,7.77
2019-06-26T22:46:57.557Z,13.00
2019-06-26T22:49:29.311Z,10.77
2019-06-26T22:52:01.108Z,11.60
2019-06-26T22:54:32.896Z,7.63
2019-06-26T22:57:04.677Z,12.33
2019-06-26T22:59:36.723Z,6.77
2019-06-26T23:02:08.728Z,9.67
2019-06-26T23:04:40.471Z,11.93
2019-06-26T23:07:12.314Z,9.77
2019-06-26T23:09:44.208Z,12.20
2019-06-26T23:12:16.223Z,9.03
2019-06-26T23:14:51.622Z,8.57
2019-06-26T23:17:26.664Z,14.53
2019-06-26T23:19:58.416Z,9.07
2019-06-26T23:22:31.094Z,12.17
2019-06-26T23:25:03.410Z,13.50
2019-06-26T23:27:35.240Z,7.07
2019-06-26T23:30:19.255Z,6.17
2019-06-26T23:32:51.199Z,5.43
2019-06-26T23:35:23.123Z,4.97
2019-06-26T23:37:56.746Z,4.97
2019-06-26T23:40:29.873Z,5.03
2019-06-26T23:43:01.708Z,7.20
2019-06-26T23:45:34.326Z,6.27
2019-06-26T23:48:06.196Z,9.87
2019-06-26T23:50:38.518Z,5.87
2019-06-26T23:53:10.350Z,7.53
2019-06-26T23:55:42.080Z,13.57
2019-06-26T23:58:13.987Z,7.53
